Time;durP1;ratioP1;P1;durP2;ratioP2;P2;SDS_P1;SDS_P2;PMS_P1;PMS_P2;Temp;Humidity;BMP_temperature;BMP_pressure;BME280_temperature;BME280_humidity;BME280_pressure;Samples;Min_cycle;Max_cycle;Signal;HPM_P1;HPM_P2
2022/04/07 00:01:25;;;;;;;1.17;0.40;;;11.40;99.90;;;;;;1953995;73;21154;-73
2022/04/07 00:03:52;;;;;;;1.22;0.65;;;11.40;99.90;;;;;;1960143;72;21107;-74
2022/04/07 00:06:20;;;;;;;0.60;0.60;;;11.30;99.90;;;;;;1953940;73;21105;-73
2022/04/07 00:08:47;;;;;;;0.62;0.62;;;11.20;99.90;;;;;;1958140;72;21102;-74
2022/04/07 00:11:14;;;;;;;0.80;0.75;;;11.20;99.90;;;;;;1957749;73;21115;-73
2022/04/07 00:13:42;;;;;;;0.57;0.57;;;11.20;99.90;;;;;;1958263;73;21471;-74
2022/04/07 00:16:09;;;;;;;1.30;0.68;;;11.20;99.90;;;;;;1958477;73;21067;-73
2022/04/07 00:18:36;;;;;;;0.75;0.70;;;11.10;99.90;;;;;;1958444;72;21234;-74
2022/04/07 00:21:11;;;;;;;1.42;0.57;;;11.10;99.90;;;;;;1959819;72;21176;-72
2022/04/07 00:23:33;;;;;;;0.68;0.68;;;11.00;99.90;;;;;;1957552;73;21151;-73
2022/04/07 00:26:00;;;;;;;0.45;0.45;;;10.90;99.90;;;;;;1951018;73;21441;-73
2022/04/07 00:28:27;;;;;;;3.10;0.80;;;10.80;99.90;;;;;;1955514;72;21111;-73
2022/04/07 00:30:55;;;;;;;2.02;0.60;;;10.70;99.90;;;;;;1958245;71;21102;-73
2022/04/07 00:33:22;;;;;;;0.95;0.75;;;10.70;99.90;;;;;;1957298;73;21522;-74
2022/04/07 00:35:49;;;;;;;1.05;0.68;;;10.60;99.90;;;;;;1955336;73;21100;-74
2022/04/07 00:38:17;;;;;;;0.75;0.70;;;10.70;99.90;;;;;;1954824;73;21099;-73
2022/04/07 00:40:44;;;;;;;0.88;0.70;;;10.70;99.90;;;;;;1957608;72;21144;-74
2022/04/07 00:43:14;;;;;;;1.52;0.80;;;10.70;99.90;;;;;;1959010;73;21279;-75
2022/04/07 00:45:42;;;;;;;0.50;0.50;;;10.70;99.90;;;;;;1949713;73;21218;-73
2022/04/07 00:48:09;;;;;;;0.50;0.50;;;10.60;99.90;;;;;;1961232;72;21160;-73
2022/04/07 00:50:36;;;;;;;1.05;0.65;;;10.60;99.90;;;;;;1959187;73;21545;-72
2022/04/07 00:53:04;;;;;;;1.45;0.60;;;10.50;99.90;;;;;;1957709;72;21095;-73
2022/04/07 00:55:31;;;;;;;0.85;0.80;;;10.50;99.90;;;;;;1961145;73;21049;-74
2022/04/07 00:57:58;;;;;;;1.42;0.90;;;10.30;99.90;;;;;;1960192;73;21167;-73
2022/04/07 01:00:26;;;;;;;0.62;0.60;;;10.40;99.90;;;;;;1960720;73;21161;-73
2022/04/07 01:02:53;;;;;;;0.70;0.70;;;10.40;99.90;;;;;;1958308;73;21173;-73
2022/04/07 01:05:23;;;;;;;0.70;0.70;;;10.50;99.90;;;;;;1956306;73;21174;-74
2022/04/07 01:07:50;;;;;;;2.42;0.70;;;10.50;99.90;;;;;;1958245;73;21536;-74
2022/04/07 01:10:17;;;;;;;0.57;0.57;;;10.50;99.90;;;;;;1957431;72;21099;-73
2022/04/07 01:12:44;;;;;;;7.62;0.80;;;10.50;99.90;;;;;;1958160;73;21593;-73
2022/04/07 01:15:11;;;;;;;0.72;0.53;;;10.50;99.90;;;;;;1951240;73;21070;-73
2022/04/07 01:17:39;;;;;;;0.40;0.40;;;10.50;99.90;;;;;;1952948;73;21153;-73
2022/04/07 01:20:07;;;;;;;0.53;0.53;;;10.50;99.90;;;;;;1958505;71;21542;-73
2022/04/07 01:22:39;;;;;;;0.65;0.65;;;10.50;99.90;;;;;;1957927;72;21594;-77
2022/04/07 01:25:08;;;;;;;2.02;0.70;;;10.50;99.90;;;;;;1952406;73;21655;-73
2022/04/07 01:27:35;;;;;;;1.00;0.60;;;10.50;99.90;;;;;;1958771;73;21220;-73
2022/04/07 01:30:04;;;;;;;0.82;0.82;;;10.40;99.90;;;;;;1953533;72;21533;-73
2022/04/07 01:32:37;;;;;;;1.10;0.70;;;10.40;99.90;;;;;;1958524;73;21099;-74
2022/04/07 01:35:05;;;;;;;0.65;0.62;;;10.50;99.90;;;;;;1960099;72;21105;-73
2022/04/07 01:37:33;;;;;;;2.58;0.80;;;10.50;99.90;;;;;;1955387;71;21175;-73
2022/04/07 01:40:01;;;;;;;0.62;0.62;;;10.30;99.90;;;;;;1959063;73;21114;-73
2022/04/07 01:42:29;;;;;;;1.45;0.88;;;10.20;99.90;;;;;;1952558;73;21648;-73
2022/04/07 01:44:58;;;;;;;2.55;0.62;;;10.30;99.90;;;;;;1960132;73;21132;-73
2022/04/07 01:47:25;;;;;;;0.70;0.70;;;10.30;99.90;;;;;;1958092;72;21250;-74
2022/04/07 01:50:01;;;;;;;1.00;0.60;;;10.20;99.90;;;;;;1956341;73;21236;-74
2022/04/07 01:52:29;;;;;;;1.00;0.60;;;10.20;99.90;;;;;;1959566;72;21106;-73
2022/04/07 01:54:56;;;;;;;0.80;0.65;;;10.20;99.90;;;;;;1958112;73;21154;-74
2022/04/07 01:57:23;;;;;;;1.27;0.70;;;10.10;99.90;;;;;;1955274;73;21120;-74
2022/04/07 01:59:52;;;;;;;0.60;0.60;;;10.00;99.90;;;;;;1959066;73;21075;-73
2022/04/07 02:02:21;;;;;;;0.75;0.60;;;10.00;99.90;;;;;;1953237;72;21071;-74
2022/04/07 02:04:53;;;;;;;0.80;0.80;;;10.00;99.90;;;;;;1957666;73;21207;-73
2022/04/07 02:07:20;;;;;;;0.85;0.80;;;10.10;99.90;;;;;;1955483;73;21106;-73
2022/04/07 02:09:48;;;;;;;3.90;0.90;;;10.10;99.90;;;;;;1952716;73;21569;-73
2022/04/07 02:12:18;;;;;;;0.60;0.60;;;10.20;99.90;;;;;;1959739;72;21175;-73
2022/04/07 02:14:44;;;;;;;0.98;0.70;;;10.20;99.90;;;;;;1956993;72;21205;-73
2022/04/07 02:17:11;;;;;;;0.70;0.70;;;10.30;99.90;;;;;;1960156;73;21504;-74
2022/04/07 02:19:38;;;;;;;0.93;0.60;;;10.30;99.90;;;;;;1956469;72;21156;-73
2022/04/07 02:22:06;;;;;;;0.70;0.70;;;10.30;99.90;;;;;;1960389;71;21521;-73
2022/04/07 02:24:33;;;;;;;0.70;0.68;;;10.30;99.90;;;;;;1957942;73;21116;-74
2022/04/07 02:27:00;;;;;;;1.20;0.62;;;10.30;99.90;;;;;;1957066;73;21095;-71
2022/04/07 02:29:28;;;;;;;1.55;0.60;;;10.30;99.90;;;;;;1954878;73;21510;-73
2022/04/07 02:31:55;;;;;;;1.27;0.75;;;10.20;99.90;;;;;;1960616;72;21171;-74
2022/04/07 02:34:22;;;;;;;0.80;0.50;;;10.30;99.90;;;;;;1959092;72;21611;-74
2022/04/07 02:36:50;;;;;;;0.60;0.60;;;10.20;99.90;;;;;;1958687;73;21106;-73
2022/04/07 02:39:17;;;;;;;0.40;0.40;;;10.20;99.90;;;;;;1956754;72;21192;-73
2022/04/07 02:41:44;;;;;;;0.50;0.50;;;10.20;99.90;;;;;;1959855;73;21118;-73
2022/04/07 02:44:12;;;;;;;0.75;0.60;;;10.30;99.90;;;;;;1958144;73;21088;-74
2022/04/07 02:46:39;;;;;;;0.60;0.60;;;10.30;99.90;;;;;;1958632;72;21233;-73
2022/04/07 02:49:07;;;;;;;1.12;0.70;;;10.30;99.90;;;;;;1957629;73;21228;-72
2022/04/07 02:51:34;;;;;;;0.72;0.50;;;10.40;99.90;;;;;;1959601;73;21217;-73
2022/04/07 02:54:02;;;;;;;0.72;0.60;;;10.50;99.90;;;;;;1959358;73;21085;-73
2022/04/07 02:56:29;;;;;;;0.95;0.53;;;10.50;99.90;;;;;;1954393;73;21122;-74
2022/04/07 02:58:57;;;;;;;0.70;0.40;;;10.50;99.90;;;;;;1958200;72;21146;-73
2022/04/07 03:01:24;;;;;;;0.50;0.50;;;10.50;99.90;;;;;;1953555;73;21576;-75
2022/04/07 03:03:55;;;;;;;0.53;0.53;;;10.50;99.90;;;;;;1956049;73;21106;-73
2022/04/07 03:06:20;;;;;;;0.47;0.42;;;10.60;99.90;;;;;;1959308;72;21206;-73
2022/04/07 03:08:48;;;;;;;2.25;0.53;;;10.60;99.90;;;;;;1956377;72;21096;-73
2022/04/07 03:11:15;;;;;;;1.10;0.57;;;10.50;99.90;;;;;;1955803;73;21181;-74
2022/04/07 03:13:42;;;;;;;1.37;0.60;;;10.50;99.90;;;;;;1960848;73;21164;-73
2022/04/07 03:16:09;;;;;;;2.20;0.53;;;10.50;99.90;;;;;;1957308;72;21619;-74
2022/04/07 03:18:37;;;;;;;0.62;0.40;;;10.60;99.90;;;;;;1961192;73;21149;-75
2022/04/07 03:21:04;;;;;;;0.40;0.40;;;10.60;99.90;;;;;;1957782;72;21509;-75
2022/04/07 03:23:32;;;;;;;0.30;0.30;;;10.70;99.90;;;;;;1956960;73;22553;-74
2022/04/07 03:26:01;;;;;;;0.40;0.40;;;10.60;99.90;;;;;;1959177;72;21194;-74
2022/04/07 03:28:28;;;;;;;0.40;0.40;;;10.60;99.90;;;;;;1958303;72;21110;-74
2022/04/07 03:30:56;;;;;;;0.90;0.42;;;10.50;99.90;;;;;;1956933;73;21109;-74
2022/04/07 03:33:23;;;;;;;0.60;0.60;;;10.60;99.90;;;;;;1963469;73;21079;-73
2022/04/07 03:35:51;;;;;;;0.40;0.35;;;10.60;99.90;;;;;;1958863;73;21286;-74
2022/04/07 03:38:18;;;;;;;0.68;0.50;;;10.60;99.90;;;;;;1957424;73;21183;-75
2022/04/07 03:40:45;;;;;;;1.10;0.50;;;10.50;99.90;;;;;;1954012;73;21169;-73
2022/04/07 03:43:13;;;;;;;0.45;0.45;;;10.50;99.90;;;;;;1956231;73;21184;-73
2022/04/07 03:45:40;;;;;;;0.65;0.50;;;10.50;99.90;;;;;;1956288;73;21172;-73
2022/04/07 03:48:07;;;;;;;0.30;0.30;;;10.50;99.90;;;;;;1959075;72;21512;-74
2022/04/07 03:50:35;;;;;;;0.70;0.30;;;10.60;99.90;;;;;;1954945;73;21093;-73
2022/04/07 03:53:02;;;;;;;1.05;0.50;;;10.60;99.90;;;;;;1959798;72;21544;-73
2022/04/07 03:55:31;;;;;;;0.30;0.30;;;10.50;99.90;;;;;;1959696;72;21113;-74
2022/04/07 03:57:58;;;;;;;0.50;0.47;;;10.50;99.90;;;;;;1959519;73;21106;-73
2022/04/07 04:00:26;;;;;;;1.30;0.53;;;10.50;99.90;;;;;;1957989;72;21600;-73
2022/04/07 04:02:53;;;;;;;0.42;0.30;;;10.50;99.90;;;;;;1957160;72;21081;-73
2022/04/07 04:05:20;;;;;;;0.65;0.35;;;10.50;99.90;;;;;;1958372;72;21171;-74
2022/04/07 04:07:48;;;;;;;0.30;0.30;;;10.40;99.90;;;;;;1959367;73;21589;-73
2022/04/07 04:10:15;;;;;;;0.70;0.45;;;10.40;99.90;;;;;;1958406;73;21523;-74
2022/04/07 04:12:43;;;;;;;0.35;0.35;;;10.30;99.90;;;;;;1958346;73;21175;-73
2022/04/07 04:15:10;;;;;;;2.05;0.85;;;10.30;99.90;;;;;;1959437;72;21164;-74
2022/04/07 04:17:37;;;;;;;0.95;0.50;;;10.30;99.90;;;;;;1953869;73;21606;-74
2022/04/07 04:20:05;;;;;;;0.85;0.45;;;10.30;99.90;;;;;;1959152;72;21172;-73
2022/04/07 04:22:33;;;;;;;0.90;0.40;;;10.30;99.90;;;;;;1961592;73;21108;-74
2022/04/07 04:25:00;;;;;;;0.93;0.60;;;10.20;99.90;;;;;;1958299;72;21132;-74
2022/04/07 04:27:28;;;;;;;0.50;0.50;;;10.10;99.90;;;;;;1954336;73;21137;-74
2022/04/07 04:29:55;;;;;;;0.33;0.33;;;10.20;99.90;;;;;;1958100;73;21125;-74
2022/04/07 04:32:22;;;;;;;0.35;0.30;;;10.10;99.90;;;;;;1954623;72;21178;-72
2022/04/07 04:34:50;;;;;;;0.80;0.50;;;10.00;99.90;;;;;;1957789;71;21149;-72
2022/04/07 04:37:17;;;;;;;2.22;0.35;;;10.10;99.90;;;;;;1956446;73;21146;-72
2022/04/07 04:39:44;;;;;;;0.70;0.53;;;10.00;99.90;;;;;;1958073;71;21171;-74
2022/04/07 04:42:11;;;;;;;0.40;0.40;;;10.00;99.90;;;;;;1955324;72;21089;-74
2022/04/07 04:44:39;;;;;;;2.50;0.45;;;10.00;99.90;;;;;;1957501;73;21111;-74
2022/04/07 04:47:06;;;;;;;1.02;0.53;;;10.10;99.90;;;;;;1957095;72;21531;-74
2022/04/07 04:49:34;;;;;;;1.57;0.50;;;10.00;99.90;;;;;;1958330;71;21184;-73
2022/04/07 04:52:01;;;;;;;1.57;0.55;;;10.00;99.90;;;;;;1959036;73;21118;-71
2022/04/07 04:54:28;;;;;;;0.57;0.50;;;10.00;99.90;;;;;;1953762;73;21136;-74
2022/04/07 04:56:55;;;;;;;0.82;0.50;;;10.00;99.90;;;;;;1954220;72;21110;-73
2022/04/07 04:59:23;;;;;;;0.65;0.53;;;10.00;99.90;;;;;;1958877;72;21110;-73
2022/04/07 05:01:50;;;;;;;2.37;0.70;;;9.90;99.90;;;;;;1958193;72;21125;-73
2022/04/07 05:04:17;;;;;;;1.72;0.95;;;10.00;99.90;;;;;;1954653;72;21159;-73
2022/04/07 05:06:45;;;;;;;0.40;0.40;;;10.00;99.90;;;;;;1958354;73;21541;-74
2022/04/07 05:09:12;;;;;;;2.05;0.50;;;10.20;99.90;;;;;;1960848;72;21106;-74
2022/04/07 05:11:39;;;;;;;1.42;0.75;;;10.20;99.90;;;;;;1958564;71;21106;-76
2022/04/07 05:14:08;;;;;;;1.57;0.55;;;10.20;99.90;;;;;;1954387;73;21192;-73
2022/04/07 05:16:35;;;;;;;0.60;0.47;;;10.30;99.90;;;;;;1958829;72;21102;-73
2022/04/07 05:19:03;;;;;;;3.77;0.60;;;10.40;99.90;;;;;;1953340;73;21087;-73
2022/04/07 05:21:30;;;;;;;2.70;0.65;;;10.40;99.90;;;;;;1953476;73;21247;-73
2022/04/07 05:23:57;;;;;;;1.50;0.37;;;10.40;99.90;;;;;;1954136;73;21173;-73
2022/04/07 05:26:25;;;;;;;0.50;0.50;;;10.40;99.90;;;;;;1955161;72;21084;-74
2022/04/07 05:28:52;;;;;;;0.88;0.40;;;10.50;99.90;;;;;;1959742;73;21507;-73
2022/04/07 05:31:19;;;;;;;0.60;0.50;;;10.50;99.90;;;;;;1931442;73;21197;-73
2022/04/07 05:33:46;;;;;;;0.35;0.35;;;10.50;99.90;;;;;;1958326;72;21184;-72
2022/04/07 05:36:14;;;;;;;1.05;0.70;;;10.50;99.90;;;;;;1955859;73;21106;-74
2022/04/07 05:38:41;;;;;;;0.68;0.40;;;10.50;99.90;;;;;;1955608;72;21176;-73
2022/04/07 05:41:08;;;;;;;1.95;0.98;;;10.50;99.90;;;;;;1957033;72;21087;-73
2022/04/07 05:43:36;;;;;;;1.75;0.50;;;10.60;99.90;;;;;;1958569;72;21171;-73
2022/04/07 05:46:03;;;;;;;0.65;0.50;;;10.80;99.90;;;;;;1959012;73;21118;-73
2022/04/07 05:48:30;;;;;;;0.60;0.40;;;10.70;99.90;;;;;;1960629;72;21087;-74
2022/04/07 05:50:58;;;;;;;1.17;0.60;;;10.70;99.90;;;;;;1955859;72;21182;-74
2022/04/07 05:53:25;;;;;;;0.30;0.30;;;10.70;99.90;;;;;;1954636;71;21126;-74
2022/04/07 05:55:53;;;;;;;0.50;0.50;;;10.70;99.90;;;;;;1953791;73;21172;-75
2022/04/07 05:58:21;;;;;;;0.80;0.60;;;10.70;99.90;;;;;;1958768;71;21524;-73
2022/04/07 06:00:48;;;;;;;1.32;0.50;;;10.80;99.90;;;;;;1955702;72;21608;-74
2022/04/07 06:03:15;;;;;;;0.72;0.60;;;10.80;99.90;;;;;;1958102;72;21097;-79
2022/04/07 06:05:43;;;;;;;1.20;0.57;;;10.80;99.90;;;;;;1961236;73;21469;-74
2022/04/07 06:08:10;;;;;;;0.30;0.30;;;10.80;99.90;;;;;;1958552;72;21192;-76
2022/04/07 06:10:37;;;;;;;1.77;0.30;;;11.00;99.90;;;;;;1953720;73;21131;-73
2022/04/07 06:13:05;;;;;;;0.62;0.30;;;11.10;99.90;;;;;;1956998;73;21089;-74
2022/04/07 06:15:32;;;;;;;0.62;0.50;;;11.30;99.90;;;;;;1958711;72;21176;-74
2022/04/07 06:18:00;;;;;;;0.40;0.40;;;11.30;99.90;;;;;;1959073;72;21127;-73
2022/04/07 06:20:27;;;;;;;0.60;0.37;;;11.30;99.90;;;;;;1955710;72;21129;-74
2022/04/07 06:22:54;;;;;;;1.37;0.47;;;11.30;99.90;;;;;;1958290;72;21087;-73
2022/04/07 06:25:21;;;;;;;0.53;0.40;;;11.30;99.90;;;;;;1956539;72;21126;-74
2022/04/07 06:27:50;;;;;;;0.40;0.40;;;11.40;99.90;;;;;;1957720;72;21534;-73
2022/04/07 06:30:18;;;;;;;1.25;0.50;;;11.50;99.90;;;;;;1961009;72;21179;-75
2022/04/07 06:32:46;;;;;;;0.30;0.30;;;11.60;99.90;;;;;;1958391;72;21580;-74
2022/04/07 06:35:15;;;;;;;0.30;0.30;;;11.60;99.90;;;;;;1956826;72;21111;-74
2022/04/07 06:37:46;;;;;;;0.60;0.40;;;11.60;99.90;;;;;;1956770;73;21127;-73
2022/04/07 06:40:14;;;;;;;0.45;0.35;;;11.70;99.90;;;;;;1957644;73;21151;-75
2022/04/07 06:42:42;;;;;;;0.80;0.20;;;11.70;99.90;;;;;;1957116;72;21087;-75
2022/04/07 06:45:10;;;;;;;0.40;0.40;;;11.70;99.90;;;;;;1956729;73;21249;-76
2022/04/07 06:47:39;;;;;;;0.47;0.35;;;11.80;99.90;;;;;;1956375;72;21170;-75
2022/04/07 06:50:09;;;;;;;1.10;0.40;;;11.80;99.90;;;;;;1957308;73;21107;-75
2022/04/07 06:52:36;;;;;;;1.15;0.40;;;12.00;99.90;;;;;;1957289;72;21227;-76
2022/04/07 06:55:04;;;;;;;0.45;0.30;;;12.00;99.90;;;;;;1958535;72;21104;-75
2022/04/07 06:57:32;;;;;;;4.12;0.50;;;12.00;99.90;;;;;;1959039;73;21186;-75
2022/04/07 07:00:03;;;;;;;0.20;0.20;;;12.20;99.90;;;;;;1958255;72;21861;-74
2022/04/07 07:02:30;;;;;;;0.33;0.30;;;12.10;99.90;;;;;;1954482;73;21239;-75
2022/04/07 07:04:58;;;;;;;0.30;0.30;;;11.90;99.90;;;;;;1959589;72;21091;-75
2022/04/07 07:07:25;;;;;;;0.37;0.30;;;11.90;99.90;;;;;;1956480;71;21105;-75
2022/04/07 07:09:54;;;;;;;0.93;0.30;;;12.00;99.90;;;;;;1958261;73;21220;-75
2022/04/07 07:12:21;;;;;;;1.37;0.60;;;11.90;99.90;;;;;;1962435;73;21109;-75
2022/04/07 07:14:49;;;;;;;1.20;0.33;;;11.90;99.90;;;;;;1957598;72;21114;-75
2022/04/07 07:17:16;;;;;;;0.30;0.30;;;11.90;99.90;;;;;;1958843;72;21110;-74
2022/04/07 07:19:45;;;;;;;0.50;0.50;;;12.00;99.90;;;;;;1924323;73;21107;-75
2022/04/07 07:22:12;;;;;;;1.17;0.80;;;12.00;99.90;;;;;;1955185;73;21194;-75
2022/04/07 07:24:39;;;;;;;0.40;0.33;;;12.10;99.90;;;;;;1958212;72;21488;-75
2022/04/07 07:27:07;;;;;;;1.35;0.35;;;12.10;99.90;;;;;;1950420;73;21205;-75
2022/04/07 07:29:34;;;;;;;0.47;0.40;;;12.20;99.90;;;;;;1955534;73;21172;-75
2022/04/07 07:32:01;;;;;;;0.28;0.28;;;12.30;99.90;;;;;;1959210;73;21140;-75
2022/04/07 07:34:29;;;;;;;0.60;0.40;;;12.20;99.90;;;;;;1951854;73;21150;-75
2022/04/07 07:36:56;;;;;;;0.72;0.20;;;12.30;99.90;;;;;;1958898;71;21201;-74
2022/04/07 07:39:23;;;;;;;0.13;0.13;;;12.40;99.90;;;;;;1962371;72;21102;-75
2022/04/07 07:41:53;;;;;;;0.45;0.30;;;12.40;99.90;;;;;;1956553;72;21118;-75
2022/04/07 07:44:20;;;;;;;0.70;0.30;;;12.30;99.90;;;;;;1957520;73;21293;-75
2022/04/07 07:46:47;;;;;;;0.62;0.28;;;12.50;99.90;;;;;;1961600;73;21268;-74
2022/04/07 07:49:14;;;;;;;0.62;0.33;;;12.70;99.90;;;;;;1957635;73;21082;-76
2022/04/07 07:51:42;;;;;;;1.92;0.30;;;12.70;99.90;;;;;;1956885;71;21179;-75
2022/04/07 07:54:09;;;;;;;0.40;0.30;;;12.80;99.90;;;;;;1956924;73;21118;-73
2022/04/07 07:56:37;;;;;;;2.58;0.40;;;13.00;99.90;;;;;;1953752;73;21110;-74
2022/04/07 07:59:04;;;;;;;0.98;0.30;;;12.90;99.90;;;;;;1932636;73;21108;-74
2022/04/07 08:01:31;;;;;;;0.30;0.30;;;12.80;99.90;;;;;;1958629;71;21191;-74
2022/04/07 08:03:59;;;;;;;4.20;0.62;;;12.70;99.90;;;;;;1959123;73;21234;-75
2022/04/07 08:06:27;;;;;;;0.82;0.30;;;12.70;99.90;;;;;;1928605;73;21049;-75
2022/04/07 08:08:54;;;;;;;0.45;0.30;;;12.60;99.90;;;;;;1956505;72;21091;-74
2022/04/07 08:11:22;;;;;;;0.40;0.20;;;12.70;99.90;;;;;;1953757;73;21159;-73
2022/04/07 08:13:49;;;;;;;0.50;0.37;;;12.60;99.90;;;;;;1958667;73;21116;-73
2022/04/07 08:16:16;;;;;;;1.52;0.30;;;12.50;99.90;;;;;;1958129;72;21098;-74
2022/04/07 08:18:44;;;;;;;2.40;0.30;;;12.60;99.90;;;;;;1958012;73;21511;-73
2022/04/07 08:21:11;;;;;;;0.30;0.30;;;12.60;99.90;;;;;;1923953;73;21138;-73
2022/04/07 08:23:38;;;;;;;2.17;0.20;;;12.70;99.90;;;;;;1958752;73;21084;-74
2022/04/07 08:26:06;;;;;;;0.35;0.35;;;12.90;99.90;;;;;;1950975;73;21076;-74
2022/04/07 08:28:33;;;;;;;2.20;0.35;;;12.90;99.90;;;;;;1954570;73;21172;-74
2022/04/07 08:31:00;;;;;;;2.05;0.40;;;12.90;99.90;;;;;;1956855;73;21101;-74
2022/04/07 08:33:28;;;;;;;1.20;0.40;;;13.00;99.90;;;;;;1958594;72;21226;-73
2022/04/07 08:35:55;;;;;;;2.37;0.50;;;13.00;99.90;;;;;;1954626;73;21143;-72
2022/04/07 08:38:23;;;;;;;0.53;0.33;;;13.10;99.90;;;;;;1958447;72;21123;-73
2022/04/07 08:40:51;;;;;;;1.07;0.50;;;13.20;99.90;;;;;;1950980;73;21037;-73
2022/04/07 08:43:19;;;;;;;0.30;0.30;;;13.30;99.90;;;;;;1953344;73;21147;-74
2022/04/07 08:45:47;;;;;;;0.55;0.40;;;13.30;99.90;;;;;;1956284;73;21197;-74
2022/04/07 08:48:15;;;;;;;0.20;0.20;;;13.30;99.90;;;;;;1954955;72;21527;-73
2022/04/07 08:50:45;;;;;;;0.65;0.30;;;13.20;99.90;;;;;;1959877;73;21084;-74
2022/04/07 08:53:13;;;;;;;0.82;0.35;;;13.10;99.90;;;;;;1960678;72;21084;-74
2022/04/07 08:55:40;;;;;;;0.62;0.30;;;13.20;99.90;;;;;;1958924;73;21083;-74
2022/04/07 08:58:10;;;;;;;0.30;0.30;;;13.20;99.90;;;;;;1959757;72;21597;-75
2022/04/07 09:00:37;;;;;;;1.12;0.40;;;13.50;99.90;;;;;;1930622;73;21100;-76
2022/04/07 09:03:04;;;;;;;0.78;0.30;;;13.50;99.90;;;;;;1961071;71;21557;-74
2022/04/07 09:05:33;;;;;;;3.50;0.50;;;13.50;99.90;;;;;;1961809;71;21086;-75
2022/04/07 09:08:00;;;;;;;0.62;0.40;;;13.50;99.90;;;;;;1957860;73;21213;-73
2022/04/07 09:10:28;;;;;;;0.30;0.30;;;13.50;99.90;;;;;;1959451;73;21172;-74
2022/04/07 09:12:55;;;;;;;0.30;0.30;;;13.60;99.90;;;;;;1956402;72;21118;-75
2022/04/07 09:15:23;;;;;;;0.30;0.30;;;13.70;99.90;;;;;;1930260;72;21523;-74
2022/04/07 09:18:00;;;;;;;0.40;0.30;;;13.60;99.90;;;;;;1958529;72;21117;-74
2022/04/07 09:20:26;;;;;;;2.87;0.50;;;13.60;99.90;;;;;;1960172;72;21217;-74
2022/04/07 09:22:57;;;;;;;0.80;0.28;;;13.70;99.90;;;;;;1959301;71;21179;-74
2022/04/07 09:25:32;;;;;;;0.68;0.20;;;13.70;99.90;;;;;;1954009;71;21114;-75
2022/04/07 09:28:00;;;;;;;0.78;0.42;;;13.80;99.90;;;;;;1958876;73;21169;-74
2022/04/07 09:30:31;;;;;;;3.80;0.82;;;13.80;99.90;;;;;;1929204;73;21083;-73
2022/04/07 09:32:59;;;;;;;0.45;0.30;;;13.80;99.90;;;;;;1932079;73;21110;-76
2022/04/07 09:35:27;;;;;;;2.75;0.35;;;13.90;99.90;;;;;;1953614;72;21084;-73
2022/04/07 09:37:56;;;;;;;0.13;0.13;;;13.90;99.90;;;;;;1956048;72;21174;-75
2022/04/07 09:40:23;;;;;;;0.23;0.20;;;14.00;99.90;;;;;;1954415;73;21110;-71
2022/04/07 09:42:58;;;;;;;0.70;0.28;;;13.90;99.90;;;;;;1897464;73;21563;-74
2022/04/07 09:45:26;;;;;;;3.52;0.35;;;13.80;99.90;;;;;;1957164;72;21498;-73
2022/04/07 09:47:53;;;;;;;1.40;0.30;;;13.80;99.90;;;;;;1960511;71;21112;-72
2022/04/07 09:50:23;;;;;;;4.80;0.23;;;13.80;99.90;;;;;;1927937;73;21241;-72
2022/04/07 09:53:03;;;;;;;0.50;0.30;;;13.60;99.90;;;;;;1958247;72;21175;-73
2022/04/07 09:55:37;;;;;;;0.50;0.30;;;13.50;99.90;;;;;;1957744;72;21523;-69
2022/04/07 09:58:12;;;;;;;3.45;0.50;;;13.60;99.90;;;;;;1953008;73;21510;-74
2022/04/07 10:00:38;;;;;;;0.20;0.20;;;13.70;99.90;;;;;;1960503;73;21598;-73
2022/04/07 10:03:05;;;;;;;0.30;0.30;;;14.20;99.90;;;;;;1953678;73;21137;-75
2022/04/07 10:05:33;;;;;;;3.15;0.40;;;14.40;99.90;;;;;;1958559;72;21111;-75
2022/04/07 10:08:00;;;;;;;2.08;0.40;;;14.60;99.90;;;;;;1959820;72;21186;-73
2022/04/07 10:10:27;;;;;;;0.20;0.20;;;14.80;99.90;;;;;;1954038;73;21116;-73
2022/04/07 10:12:59;;;;;;;1.00;0.37;;;14.80;99.90;;;;;;1956549;72;21106;-73
2022/04/07 10:15:26;;;;;;;1.42;0.35;;;14.90;99.90;;;;;;1957610;73;21143;-74
2022/04/07 10:17:54;;;;;;;0.80;0.23;;;15.00;99.90;;;;;;1958608;73;21169;-73
2022/04/07 10:20:21;;;;;;;0.90;0.40;;;15.00;99.90;;;;;;1953330;73;21092;-74
2022/04/07 10:22:52;;;;;;;0.95;0.40;;;14.80;99.90;;;;;;1960926;71;21566;-73
2022/04/07 10:25:19;;;;;;;0.70;0.37;;;14.60;99.90;;;;;;1954699;73;21079;-72
2022/04/07 10:27:50;;;;;;;2.08;0.53;;;14.50;99.90;;;;;;1959190;73;21178;-73
2022/04/07 10:30:19;;;;;;;1.95;0.30;;;14.40;99.90;;;;;;1954243;73;21141;-72
2022/04/07 10:32:58;;;;;;;0.88;0.20;;;14.50;99.90;;;;;;1957642;72;21131;-76
2022/04/07 10:35:35;;;;;;;0.37;0.23;;;14.50;99.90;;;;;;1955770;73;21152;-74
2022/04/07 10:38:01;;;;;;;1.60;0.20;;;14.50;99.90;;;;;;1957767;72;21203;-75
2022/04/07 10:40:54;;;;;;;0.57;0.23;;;14.50;99.90;;;;;;1901328;73;21122;-74
2022/04/07 10:43:27;;;;;;;0.13;0.10;;;14.50;99.90;;;;;;1956866;73;21187;-74
2022/04/07 10:46:08;;;;;;;0.90;0.10;;;14.50;99.90;;;;;;1959523;72;21124;-78
2022/04/07 10:48:51;;;;;;;0.75;0.20;;;14.50;99.90;;;;;;1960021;72;21209;-79
2022/04/07 10:51:19;;;;;;;0.20;0.20;;;14.30;99.90;;;;;;1961596;73;21117;-75
2022/04/07 10:53:58;;;;;;;0.10;0.10;;;14.30;99.90;;;;;;1959359;73;21106;-75
2022/04/07 10:56:32;;;;;;;0.20;0.20;;;14.40;99.90;;;;;;1952494;73;21127;-75
2022/04/07 10:58:56;;;;;;;0.20;0.20;;;14.60;99.90;;;;;;1956260;72;21141;-75
2022/04/07 11:01:34;;;;;;;2.40;0.33;;;14.60;99.90;;;;;;1959230;73;21515;-76
2022/04/07 11:04:25;;;;;;;2.50;0.20;;;14.70;99.90;;;;;;1953436;73;21145;-74
2022/04/07 11:07:22;;;;;;;1.05;0.20;;;14.80;99.90;;;;;;1959221;72;21109;-76
2022/04/07 11:10:11;;;;;;;0.28;0.20;;;14.90;99.90;;;;;;1953520;73;21134;-75
2022/04/07 11:12:43;;;;;;;0.30;0.30;;;14.90;99.90;;;;;;1954135;72;21222;-76
2022/04/07 11:15:20;;;;;;;0.55;0.20;;;15.30;99.90;;;;;;1956184;72;21127;-74
2022/04/07 11:17:51;;;;;;;3.20;0.50;;;15.30;99.90;;;;;;1958743;72;21177;-74
2022/04/07 11:20:22;;;;;;;2.50;0.20;;;15.30;99.90;;;;;;1956224;72;21120;-76
2022/04/07 11:23:13;;;;;;;0.10;0.10;;;15.40;99.90;;;;;;1956356;71;21104;-75
2022/04/07 11:25:40;;;;;;;0.23;0.10;;;15.70;99.90;;;;;;1958742;72;21137;-74
2022/04/07 11:28:19;;;;;;;0.75;0.20;;;15.70;99.90;;;;;;1959256;73;21507;-75
2022/04/07 11:30:50;;;;;;;0.20;0.15;;;15.50;99.90;;;;;;1954500;73;21140;-76
2022/04/07 11:33:26;;;;;;;0.15;0.13;;;15.70;99.90;;;;;;1928196;73;21176;-78
2022/04/07 11:36:07;;;;;;;0.10;0.10;;;15.70;99.90;;;;;;1957726;73;21154;-77
2022/04/07 11:38:39;;;;;;;1.95;0.23;;;15.50;99.90;;;;;;1960957;73;21626;-78
2022/04/07 11:41:11;;;;;;;0.23;0.15;;;15.60;99.90;;;;;;1960278;73;21523;-73
2022/04/07 11:43:43;;;;;;;1.25;0.20;;;15.50;99.90;;;;;;1955574;72;21059;-68
2022/04/07 11:46:12;;;;;;;0.20;0.20;;;15.50;99.90;;;;;;1955606;72;21082;-69
2022/04/07 11:48:40;;;;;;;0.35;0.20;;;15.50;99.90;;;;;;1958232;73;21066;-69
2022/04/07 11:51:17;;;;;;;0.28;0.20;;;15.50;99.90;;;;;;1959792;72;21087;-69
2022/04/07 11:53:55;;;;;;;1.35;0.10;;;15.60;99.90;;;;;;1955257;73;21210;-68
2022/04/07 11:56:26;;;;;;;3.72;0.20;;;15.60;99.90;;;;;;1957262;73;21478;-68
2022/04/07 11:58:57;;;;;;;0.60;0.10;;;15.40;99.90;;;;;;1954282;73;21194;-68
2022/04/07 12:01:24;;;;;;;0.42;0.15;;;15.40;99.90;;;;;;1955664;73;21479;-71
2022/04/07 12:03:55;;;;;;;2.40;0.10;;;15.20;99.90;;;;;;1957989;73;21209;-69
2022/04/07 12:06:28;;;;;;;1.02;0.10;;;15.30;99.90;;;;;;1958814;73;21007;-70
2022/04/07 12:08:55;;;;;;;2.10;0.30;;;15.40;99.90;;;;;;1960010;72;21124;-69
2022/04/07 12:11:23;;;;;;;2.65;0.10;;;15.30;99.90;;;;;;1960826;73;21060;-68
2022/04/07 12:13:51;;;;;;;1.85;0.30;;;15.30;99.90;;;;;;1959009;73;21182;-68
2022/04/07 12:16:19;;;;;;;2.80;0.23;;;15.20;99.90;;;;;;1960300;71;21074;-69
2022/04/07 12:18:56;;;;;;;0.90;0.20;;;15.30;99.90;;;;;;1958432;73;21085;-69
2022/04/07 12:21:25;;;;;;;0.20;0.20;;;15.10;99.90;;;;;;1958268;73;21031;-70
2022/04/07 12:24:14;;;;;;;0.20;0.20;;;15.10;99.90;;;;;;1957121;73;21566;-68
2022/04/07 12:26:43;;;;;;;0.10;0.10;;;15.20;99.90;;;;;;1957993;72;21082;-69
2022/04/07 12:29:17;;;;;;;0.17;0.10;;;14.80;99.90;;;;;;1958565;72;21246;-71
2022/04/07 12:31:44;;;;;;;3.65;0.20;;;14.70;99.90;;;;;;1958193;72;21468;-70
2022/04/07 12:34:13;;;;;;;0.37;0.20;;;14.70;99.90;;;;;;1958047;72;21116;-69
2022/04/07 12:36:43;;;;;;;0.10;0.10;;;14.60;99.90;;;;;;1958044;71;21528;-70
2022/04/07 12:39:11;;;;;;;0.23;0.10;;;14.50;99.90;;;;;;1955561;73;21058;-69
2022/04/07 12:41:41;;;;;;;0.10;0.10;;;14.50;99.90;;;;;;1957239;73;21068;-69
2022/04/07 12:44:09;;;;;;;2.35;0.23;;;14.40;99.90;;;;;;1956856;73;21098;-70
2022/04/07 12:46:52;;;;;;;2.05;0.20;;;14.40;99.90;;;;;;1954696;72;21139;-69
2022/04/07 12:49:41;;;;;;;2.50;0.10;;;14.40;99.90;;;;;;1957791;72;21527;-70
2022/04/07 12:52:08;;;;;;;0.20;0.17;;;14.50;99.90;;;;;;1955546;72;21468;-70
2022/04/07 12:54:36;;;;;;;0.10;0.10;;;14.50;99.90;;;;;;1955755;73;21077;-69
2022/04/07 12:57:14;;;;;;;0.88;0.30;;;14.70;99.90;;;;;;1957707;73;21100;-69